Share

Alice Springs, Northern Territory

5:08 PM CST on April 25, 2014 (GMT +0930)
Mount Johns, Alice Springs (INORTHER33) Elev 1890 ft | 23.72 °S, 133.88 °E | Change Station

Current weather conditions updated 0 second ago

Clear
Clear
85.8 °F
Feels Like 83 °F
N
0.0
Wind Variable Wind from North
Gusts 0.0 mph
Sunrise 6:52 AM
Sunset 6:12 PM
Moon Waning Crescent

Tomorrow is forecast to be Warmer than today.

Pressure 29.92 in
Visibility -9999.0 miles
Clouds
Heat Index 83 °F
Dew Point 43 °F
Humidity 22%
Rainfall 0.00 in
Snow Depth Not available.
UV Not available.
Pollen Not available.
Air Quality Not available.
Flu Activity Not available.
METAR YBAS 250700Z 12003KT CAVOK 29/03 Q1013

More Conditions Fewer Conditions

Pressure 29.92 in
Visibility -9999.0 miles
Clouds
Heat Index 83 °F
Dew Point 43 °F
Humidity 22%
Rainfall 0.00 in
Snow Depth Not available.
UV Not available.
Pollen Not available.
Air Quality Not available.
Flu Activity Not available.
METAR YBAS 250700Z 12003KT CAVOK 29/03 Q1013

More Conditions Fewer Conditions

10-Day Weather Forecast

Almanac

Astronomy

Apr. 25, 2014 Rise Set
Actual Time 6:52 AM CST 6:12 PM CST
Civil Twilight 6:29 AM CST 6:35 PM CST
Nautical Twilight 6:02 AM CST 7:02 PM CST
Astronomical Twilight 5:35 AM CST 7:28 PM CST
Moon 2:39 AM CST 3:19 PM CST
Length of Visible Light 12h 06m
Length of Day
11h 20m
Tomorrow will be 1m 12s shorter.
Waning Crescent, 18% of the Moon is Illuminated
Today
Waning Crescent
Apr 29
New
May 6
First Quarter
May 14
Full
May 21
Last Quarter

Yesterday's Extremes

Country Highs Country Lows

Community

  • Deer in evening light
    Deer in evening light
  • Critter
    Critter
  • Jone Runs Falls
    Jone Runs Falls
  • Easter in Shenandoah National Park
    Easter in Shenandoah National Park
  • Sunset at Apalachicola Bay, Florida
    Sunset at Apalachicola Bay, Florida

WunderPhotos

Upload Photos

1,704,872 photos uploaded!

WunderBlogs® & News

Nearby

Snow Depth

Not available.

Coastal Water Temperatures

Place Temperature
No Stations Reporting

Earthquake Activity

City Distance Mag. Time & Date
No recent earthquake activity has been reported nearby.
Minimum magnitude displayed is 2.5.

Nearby Weather Stations

Station Location Temp. Heat Index Dew Point Humidity Wind Precip. Elev Updated Type
Mount Johns, Alice Springs, Alice Springs 85.8 °F 83 °F 43 °F 22% North  at  0.0 mph 0.00 in / hr 1890 ft 5:08 PM CST Rapid Fire
Mount Johns, Mount Johns 88.3 °F 85 °F 36 °F 16% NNE  at  0.0 mph 0.00 in / hr 1900 ft 5:08 PM CST Rapid Fire
Gillen, Alice Springs 88.3 °F 85 °F 47 °F 24% WSW  at  0.0 mph 0.00 in / hr 1886 ft 5:08 PM CST Rapid Fire
Braitling, Alice Springs 82.0 °F 80 °F 40 °F 22% South  at  1.0 mph 0.00 in / hr 1952 ft 5:08 PM CST Rapid Fire

Show More Stations Show Fewer Stations

What do you think?

We're not finished. Please let us know what you like, what you don't like, and what you are still missing.